createdAt,value
2022-11-01T00:00:45.965Z,858.25
2022-11-01T00:01:46.052Z,858.23
2022-11-01T00:02:46.028Z,858.18
2022-11-01T00:03:46.033Z,858.20
2022-11-01T00:04:45.944Z,858.21
2022-11-01T00:05:45.909Z,858.22
2022-11-01T00:06:45.911Z,858.21
2022-11-01T00:07:45.891Z,858.18
2022-11-01T00:08:45.880Z,858.19
2022-11-01T00:09:45.932Z,858.17
2022-11-01T00:10:45.875Z,858.16
2022-11-01T00:11:45.858Z,858.15
2022-11-01T00:12:45.838Z,858.15
2022-11-01T00:13:45.827Z,858.13
2022-11-01T00:14:45.816Z,858.13
2022-11-01T00:15:45.894Z,858.12
2022-11-01T00:16:45.806Z,858.08
2022-11-01T00:17:45.782Z,858.03
2022-11-01T00:18:45.792Z,858.02
2022-11-01T00:19:45.771Z,858.02
2022-11-01T00:20:45.757Z,858.04
2022-11-01T00:21:45.791Z,858.03
2022-11-01T00:22:45.734Z,858.01
2022-11-01T00:23:45.720Z,858.00
2022-11-01T00:24:45.723Z,858.01
2022-11-01T00:25:45.696Z,858.02
2022-11-01T00:26:45.807Z,858.02
2022-11-01T00:27:45.711Z,858.03
2022-11-01T00:28:45.667Z,858.05
2022-11-01T00:29:45.655Z,858.03
2022-11-01T00:30:45.647Z,858.06
2022-11-01T00:31:45.632Z,858.02
2022-11-01T00:32:45.634Z,858.01
2022-11-01T00:33:45.692Z,858.04
2022-11-01T00:34:45.629Z,858.04
2022-11-01T00:35:45.592Z,858.05
2022-11-01T00:36:45.582Z,858.07
2022-11-01T00:37:45.573Z,858.03
2022-11-01T00:38:45.565Z,858.05
2022-11-01T00:39:45.685Z,858.02
2022-11-01T00:40:45.544Z,858.05
2022-11-01T00:41:45.538Z,858.04
2022-11-01T00:42:45.515Z,858.06
2022-11-01T00:43:45.522Z,858.03
2022-11-01T00:44:45.501Z,858.07
2022-11-01T00:45:45.507Z,858.00
2022-11-01T00:46:45.485Z,857.98
2022-11-01T00:47:45.462Z,857.98
2022-11-01T00:48:45.461Z,858.01
2022-11-01T00:49:45.505Z,857.99
2022-11-01T00:50:45.450Z,857.96
2022-11-01T00:51:45.417Z,857.94
2022-11-01T00:52:45.460Z,857.97
2022-11-01T00:53:45.407Z,857.96
2022-11-01T00:54:45.389Z,857.90
2022-11-01T00:55:45.376Z,857.96
2022-11-01T00:56:45.389Z,857.91
2022-11-01T00:57:45.453Z,857.93
2022-11-01T00:58:45.350Z,857.98
2022-11-01T00:59:45.370Z,857.96
2022-11-01T01:00:45.424Z,857.91
2022-11-01T01:01:45.418Z,857.97
2022-11-01T01:02:45.314Z,857.90
2022-11-01T01:03:45.353Z,857.91
2022-11-01T01:04:45.283Z,857.94
2022-11-01T01:05:45.282Z,857.94
2022-11-01T01:06:45.276Z,857.94
2022-11-01T01:07:45.253Z,857.91
2022-11-01T01:08:45.239Z,857.92
2022-11-01T01:09:45.300Z,857.89
2022-11-01T01:10:45.216Z,857.91
2022-11-01T01:11:45.201Z,857.92
2022-11-01T01:12:45.198Z,857.90
2022-11-01T01:13:45.196Z,857.93
2022-11-01T01:14:45.173Z,857.90
2022-11-01T01:15:45.221Z,857.91
2022-11-01T01:16:45.158Z,857.89
2022-11-01T01:17:45.146Z,857.89
2022-11-01T01:18:45.127Z,857.90
2022-11-01T01:19:45.125Z,857.89
2022-11-01T01:20:45.125Z,857.82
2022-11-01T01:21:45.207Z,857.87
2022-11-01T01:22:45.107Z,857.83
2022-11-01T01:23:45.073Z,857.80
2022-11-01T01:24:45.064Z,857.86
2022-11-01T01:25:45.070Z,857.85
2022-11-01T01:26:45.046Z,857.86
2022-11-01T01:27:45.114Z,857.82
2022-11-01T01:28:45.119Z,857.90
2022-11-01T01:29:45.008Z,857.86
2022-11-01T01:30:45.000Z,857.86
2022-11-01T01:31:45.005Z,857.89
2022-11-01T01:32:44.976Z,857.85
2022-11-01T01:33:45.032Z,857.90
2022-11-01T01:34:44.956Z,857.88
2022-11-01T01:35:44.945Z,857.89
2022-11-01T01:36:44.939Z,857.89
2022-11-01T01:37:44.943Z,857.90
2022-11-01T01:38:44.932Z,857.92
2022-11-01T01:39:44.990Z,857.90
2022-11-01T01:40:44.894Z,857.90
2022-11-01T01:41:44.879Z,857.87
2022-11-01T01:42:44.870Z,857.84
2022-11-01T01:43:44.870Z,857.87
2022-11-01T01:44:44.849Z,857.87
2022-11-01T01:45:44.974Z,857.88
2022-11-01T01:46:44.873Z,857.84
2022-11-01T01:47:44.816Z,857.85
2022-11-01T01:48:44.813Z,857.86
2022-11-01T01:49:44.889Z,857.86
2022-11-01T01:50:44.792Z,857.83
2022-11-01T01:51:44.812Z,857.82
2022-11-01T01:52:44.763Z,857.78
2022-11-01T01:53:44.762Z,857.81
2022-11-01T01:54:44.759Z,857.81
2022-11-01T01:55:44.835Z,857.78
2022-11-01T01:56:44.720Z,857.82
2022-11-01T01:57:44.741Z,857.81
2022-11-01T01:58:44.705Z,857.77
2022-11-01T01:59:44.685Z,857.79
2022-11-01T02:00:44.733Z,857.75
2022-11-01T02:01:44.912Z,857.77
2022-11-01T02:02:44.656Z,857.70
2022-11-01T02:03:44.690Z,857.74
2022-11-01T02:04:44.634Z,857.70
2022-11-01T02:05:44.653Z,857.64
2022-11-01T02:06:44.613Z,857.60
2022-11-01T02:07:44.613Z,857.62
2022-11-01T02:08:44.590Z,857.59
2022-11-01T02:09:44.660Z,857.58
2022-11-01T02:10:44.592Z,857.56
2022-11-01T02:11:44.562Z,857.58
2022-11-01T02:12:44.560Z,857.50
2022-11-01T02:13:44.612Z,857.53
2022-11-01T02:14:44.529Z,857.50
2022-11-01T02:15:44.537Z,857.53
2022-11-01T02:16:44.554Z,857.52
2022-11-01T02:17:44.499Z,857.52
2022-11-01T02:18:44.485Z,857.50
2022-11-01T02:19:44.475Z,857.56
2022-11-01T02:20:44.463Z,857.52
2022-11-01T02:21:44.545Z,857.61
2022-11-01T02:23:44.434Z,857.64
2022-11-01T02:24:44.422Z,857.66
2022-11-01T02:25:44.410Z,857.63
2022-11-01T02:26:44.428Z,857.58
2022-11-01T02:27:44.475Z,857.56
2022-11-01T02:28:44.379Z,857.56
2022-11-01T02:29:44.371Z,857.51
2022-11-01T02:30:44.408Z,857.53
2022-11-01T02:31:44.349Z,857.52
2022-11-01T02:32:44.357Z,857.56
2022-11-01T02:33:44.414Z,857.53
2022-11-01T02:34:44.316Z,857.54
2022-11-01T02:35:44.306Z,857.55
2022-11-01T02:36:44.296Z,857.54
2022-11-01T02:37:44.283Z,857.45
2022-11-01T02:38:44.281Z,857.48
2022-11-01T02:39:44.262Z,857.44
2022-11-01T02:40:44.324Z,857.48
2022-11-01T02:41:44.242Z,857.42
2022-11-01T02:42:44.260Z,857.44
2022-11-01T02:43:44.232Z,857.41
2022-11-01T02:44:44.206Z,857.44
2022-11-01T02:45:44.200Z,857.43
2022-11-01T02:46:44.226Z,857.44
2022-11-01T02:47:44.178Z,857.46
2022-11-01T02:48:44.165Z,857.47
2022-11-01T02:49:44.167Z,857.43
2022-11-01T02:50:44.146Z,857.49
2022-11-01T02:51:44.134Z,857.44
2022-11-01T02:52:44.190Z,857.42
2022-11-01T02:53:44.112Z,857.44
2022-11-01T02:54:44.120Z,857.41
2022-11-01T02:56:44.077Z,857.37
2022-11-01T02:57:44.074Z,857.35
2022-11-01T02:58:44.109Z,857.31
2022-11-01T02:59:44.046Z,857.39
2022-11-01T03:00:44.120Z,857.30
2022-11-01T03:01:44.144Z,857.29
2022-11-01T03:02:44.013Z,857.28
2022-11-01T03:03:44.012Z,857.27
2022-11-01T03:04:44.065Z,857.28
2022-11-01T03:05:43.983Z,857.31
2022-11-01T03:06:43.981Z,857.29
2022-11-01T03:07:43.964Z,857.31
2022-11-01T03:08:43.948Z,857.22
2022-11-01T03:09:43.941Z,857.21
2022-11-01T03:10:43.992Z,857.22
2022-11-01T03:11:43.931Z,857.22
2022-11-01T03:12:43.909Z,857.20
2022-11-01T03:13:43.903Z,857.21
2022-11-01T03:14:43.907Z,857.18
2022-11-01T03:15:43.879Z,857.18
2022-11-01T03:16:43.962Z,857.19
2022-11-01T03:17:43.855Z,857.20
2022-11-01T03:18:43.842Z,857.18
2022-11-01T03:19:43.837Z,857.17
2022-11-01T03:20:43.823Z,857.10
2022-11-01T03:21:43.811Z,857.04
2022-11-01T03:22:43.893Z,857.06
2022-11-01T03:23:43.792Z,857.02
2022-11-01T03:24:43.778Z,857.01
2022-11-01T03:25:43.768Z,857.01
2022-11-01T03:26:43.755Z,856.98
2022-11-01T03:27:43.760Z,856.96
2022-11-01T03:28:43.825Z,857.00
2022-11-01T03:29:43.739Z,857.02
2022-11-01T03:30:43.738Z,856.98
2022-11-01T03:31:43.705Z,857.00
2022-11-01T03:32:43.693Z,856.95
2022-11-01T03:33:43.684Z,856.97
2022-11-01T03:34:43.672Z,856.97
2022-11-01T03:35:43.712Z,856.98
2022-11-01T03:36:43.651Z,857.01
2022-11-01T03:37:43.646Z,856.97
2022-11-01T03:38:43.630Z,856.97
2022-11-01T03:39:43.620Z,856.97
2022-11-01T03:40:43.639Z,856.98
2022-11-01T03:41:43.624Z,856.97
2022-11-01T03:42:43.590Z,857.01
2022-11-01T03:43:43.578Z,857.03
2022-11-01T03:44:43.584Z,857.07
2022-11-01T03:45:43.577Z,857.08
2022-11-01T03:46:43.608Z,857.08
2022-11-01T03:47:43.539Z,857.10
2022-11-01T03:48:43.525Z,857.11
2022-11-01T03:49:43.527Z,857.07
2022-11-01T03:50:43.501Z,857.03
2022-11-01T03:51:43.494Z,857.07
2022-11-01T03:52:43.563Z,857.06
2022-11-01T03:53:43.470Z,857.02
2022-11-01T03:54:43.477Z,857.01
2022-11-01T03:55:43.463Z,857.00
2022-11-01T03:56:43.436Z,857.00
2022-11-01T03:57:43.433Z,857.00
2022-11-01T03:58:43.495Z,856.99
2022-11-01T03:59:43.405Z,857.05
2022-11-01T04:00:43.422Z,857.04
2022-11-01T04:01:43.562Z,857.09
2022-11-01T04:02:43.391Z,857.06
2022-11-01T04:03:43.365Z,857.08
2022-11-01T04:04:43.445Z,857.04
2022-11-01T04:05:43.353Z,857.05
2022-11-01T04:06:43.330Z,857.03
2022-11-01T04:07:43.319Z,857.11
2022-11-01T04:08:43.314Z,857.05
2022-11-01T04:09:43.298Z,857.05
2022-11-01T04:10:43.369Z,857.02
2022-11-01T04:11:43.289Z,857.02
2022-11-01T04:12:43.268Z,857.00
2022-11-01T04:13:43.257Z,857.05
2022-11-01T04:14:43.242Z,857.08
2022-11-01T04:15:43.245Z,857.06
2022-11-01T04:16:43.285Z,857.05
2022-11-01T04:17:43.214Z,857.09
2022-11-01T04:18:43.224Z,857.07
2022-11-01T04:19:43.190Z,857.02
2022-11-01T04:20:43.177Z,857.09
2022-11-01T04:21:43.193Z,857.01
2022-11-01T04:22:43.193Z,857.06
2022-11-01T04:23:43.150Z,857.03
2022-11-01T04:24:43.138Z,857.05
2022-11-01T04:25:43.134Z,857.03
2022-11-01T04:26:43.114Z,856.97
2022-11-01T04:27:43.116Z,856.99
2022-11-01T04:28:43.191Z,856.99
2022-11-01T04:29:43.097Z,856.97
2022-11-01T04:30:43.071Z,856.93
2022-11-01T04:31:43.062Z,856.91
2022-11-01T04:32:43.048Z,856.98
2022-11-01T04:33:43.040Z,856.97
2022-11-01T04:34:43.106Z,857.02
2022-11-01T04:35:43.016Z,857.03
2022-11-01T04:36:43.009Z,857.05
2022-11-01T04:37:42.995Z,856.97
2022-11-01T04:38:42.985Z,857.00
2022-11-01T04:39:42.991Z,856.97
2022-11-01T04:40:43.014Z,856.97
2022-11-01T04:41:43.019Z,856.95
2022-11-01T04:42:42.941Z,856.96
2022-11-01T04:43:42.933Z,856.98
2022-11-01T04:44:42.936Z,857.02
2022-11-01T04:45:42.914Z,857.04
2022-11-01T04:46:42.943Z,857.01
2022-11-01T04:47:42.890Z,856.97
2022-11-01T04:48:42.885Z,857.00
2022-11-01T04:49:42.872Z,857.00
2022-11-01T04:50:42.891Z,857.04
2022-11-01T04:51:42.855Z,856.98
2022-11-01T04:52:42.964Z,857.02
2022-11-01T04:53:42.839Z,857.01
2022-11-01T04:54:42.816Z,857.00
2022-11-01T04:55:42.807Z,856.96
2022-11-01T04:56:42.795Z,856.98
2022-11-01T04:57:42.797Z,856.94
2022-11-01T04:58:46.249Z,856.92
2022-11-01T04:59:42.764Z,856.91
2022-11-01T05:00:42.821Z,856.94
2022-11-01T05:01:42.880Z,856.99
2022-11-01T05:02:42.730Z,856.98
2022-11-01T05:03:42.737Z,856.89
2022-11-01T05:04:42.811Z,856.91
2022-11-01T05:05:43.698Z,856.88
2022-11-01T05:06:42.720Z,856.84
2022-11-01T05:07:42.678Z,856.87
2022-11-01T05:08:42.665Z,856.88
2022-11-01T05:09:42.668Z,856.87
2022-11-01T05:10:42.674Z,856.82
2022-11-01T05:11:42.645Z,856.88
2022-11-01T05:12:42.623Z,856.87
2022-11-01T05:13:42.613Z,856.82
2022-11-01T05:14:42.601Z,856.85
2022-11-01T05:15:53.596Z,856.81
2022-11-01T05:16:43.647Z,856.84
2022-11-01T05:17:42.571Z,856.85
2022-11-01T05:18:42.562Z,856.83
2022-11-01T05:19:42.568Z,856.82
2022-11-01T05:20:42.538Z,856.79
2022-11-01T05:21:42.531Z,856.80
2022-11-01T05:22:42.596Z,856.79
2022-11-01T05:23:42.507Z,856.79
2022-11-01T05:25:42.500Z,856.78
2022-11-01T05:26:42.476Z,856.89
2022-11-01T05:27:42.470Z,856.83
2022-11-01T05:28:42.507Z,856.84
2022-11-01T05:29:42.446Z,856.85
2022-11-01T05:30:42.432Z,856.83
2022-11-01T05:31:42.434Z,856.81
2022-11-01T05:32:42.415Z,856.78
2022-11-01T05:33:42.402Z,856.77
2022-11-01T05:34:42.452Z,856.80
2022-11-01T05:35:42.383Z,856.74
2022-11-01T05:36:42.371Z,856.80
2022-11-01T05:37:42.377Z,856.83
2022-11-01T05:38:42.368Z,856.85
2022-11-01T05:39:42.340Z,856.89
2022-11-01T05:40:42.376Z,856.82
2022-11-01T05:41:42.329Z,856.76
2022-11-01T05:42:42.307Z,856.76
2022-11-01T05:43:42.296Z,856.72
2022-11-01T05:44:42.284Z,856.76
2022-11-01T05:45:42.275Z,856.72
2022-11-01T05:46:42.327Z,856.74
2022-11-01T05:47:42.254Z,856.82
2022-11-01T05:48:42.244Z,856.81
2022-11-01T05:49:42.239Z,856.84
2022-11-01T05:50:42.225Z,856.91
2022-11-01T05:51:42.213Z,856.87
2022-11-01T05:52:42.334Z,856.89
2022-11-01T05:53:42.226Z,856.86
2022-11-01T05:54:42.198Z,856.83
2022-11-01T05:55:42.190Z,856.79
2022-11-01T05:56:42.155Z,856.86
2022-11-01T05:57:42.215Z,856.89
2022-11-01T05:58:42.200Z,856.90
2022-11-01T05:59:42.125Z,856.93
2022-11-01T06:00:42.134Z,856.97
2022-11-01T06:01:42.212Z,856.96
2022-11-01T06:02:42.175Z,856.95
2022-11-01T06:03:42.099Z,856.93
2022-11-01T06:04:42.143Z,856.92
2022-11-01T06:05:42.058Z,856.89
2022-11-01T06:06:42.046Z,856.95
2022-11-01T06:07:42.037Z,856.96
2022-11-01T06:08:42.023Z,857.04
2022-11-01T06:09:42.032Z,857.08
2022-11-01T06:10:42.086Z,857.10
2022-11-01T06:11:42.076Z,857.05
2022-11-01T06:12:41.980Z,857.11
2022-11-01T06:13:41.985Z,857.09
2022-11-01T06:14:41.959Z,857.14
2022-11-01T06:15:42.057Z,857.15
2022-11-01T06:16:42.018Z,857.15
2022-11-01T06:17:41.961Z,857.19
2022-11-01T06:18:41.928Z,857.16
2022-11-01T06:19:41.908Z,857.23
2022-11-01T06:20:41.966Z,857.18
2022-11-01T06:21:41.893Z,857.23
2022-11-01T06:22:41.946Z,857.17
2022-11-01T06:23:41.864Z,857.19
2022-11-01T06:24:41.857Z,857.21
2022-11-01T06:25:41.840Z,857.18
2022-11-01T06:26:41.847Z,857.21
2022-11-01T06:27:41.830Z,857.20
2022-11-01T06:28:41.852Z,857.19
2022-11-01T06:29:41.797Z,857.21
2022-11-01T06:30:41.785Z,857.25
2022-11-01T06:31:41.786Z,857.21
2022-11-01T06:32:41.764Z,857.18
2022-11-01T06:33:41.751Z,857.16
2022-11-01T06:34:44.835Z,857.16
2022-11-01T06:35:41.736Z,857.14
2022-11-01T06:36:41.720Z,857.15
2022-11-01T06:37:41.724Z,857.13
2022-11-01T06:38:41.697Z,857.14
2022-11-01T06:39:41.684Z,857.09
2022-11-01T06:40:41.739Z,857.14
2022-11-01T06:41:41.671Z,857.13
2022-11-01T06:42:46.288Z,857.11
2022-11-01T06:43:42.654Z,857.10
2022-11-01T06:44:41.634Z,857.12
2022-11-01T06:45:41.624Z,857.10
2022-11-01T06:46:41.645Z,857.11
2022-11-01T06:47:41.599Z,857.09
2022-11-01T06:48:41.617Z,857.11
2022-11-01T06:49:41.587Z,857.16
2022-11-01T06:50:41.569Z,857.15
2022-11-01T06:51:41.556Z,857.17
2022-11-01T06:52:41.583Z,857.17
2022-11-01T06:53:41.546Z,857.22
2022-11-01T06:54:41.525Z,857.26
2022-11-01T06:55:41.514Z,857.23
2022-11-01T06:56:41.503Z,857.28
2022-11-01T06:57:41.506Z,857.26
2022-11-01T06:58:41.540Z,857.28
2022-11-01T06:59:41.469Z,857.27
2022-11-01T07:00:41.572Z,857.28
2022-11-01T07:01:41.638Z,857.29
2022-11-01T07:02:41.481Z,857.27
2022-11-01T07:03:41.436Z,857.29
2022-11-01T07:04:41.498Z,857.32
2022-11-01T07:05:41.403Z,857.41
2022-11-01T07:06:41.407Z,857.41
2022-11-01T07:07:41.393Z,857.42
2022-11-01T07:08:41.386Z,857.39
2022-11-01T07:09:41.383Z,857.38
2022-11-01T07:10:41.437Z,857.32
2022-11-01T07:11:41.363Z,857.38
2022-11-01T07:12:41.351Z,857.45
2022-11-01T07:13:41.505Z,857.42
2022-11-01T07:14:41.333Z,857.48
2022-11-01T07:16:21.108Z,857.46
2022-11-01T07:16:41.289Z,857.45
2022-11-01T07:17:41.277Z,857.44
2022-11-01T07:18:41.269Z,857.49
2022-11-01T07:19:41.365Z,857.50
2022-11-01T07:20:41.578Z,857.55
2022-11-01T07:21:41.236Z,857.53
2022-11-01T07:22:41.223Z,857.56
2022-11-01T07:23:41.215Z,857.53
2022-11-01T07:24:41.202Z,857.54
2022-11-01T07:25:41.202Z,857.55
2022-11-01T07:26:41.266Z,857.59
2022-11-01T07:27:41.171Z,857.63
2022-11-01T07:28:41.160Z,857.71
2022-11-01T07:29:41.149Z,857.70
2022-11-01T07:30:41.169Z,857.70
2022-11-01T07:31:41.133Z,857.57
2022-11-01T07:32:41.205Z,857.63
2022-11-01T07:33:41.112Z,857.68
2022-11-01T07:34:41.094Z,857.73
2022-11-01T07:35:41.086Z,857.76
2022-11-01T07:36:41.092Z,857.75
2022-11-01T07:37:41.071Z,857.78
2022-11-01T07:38:41.164Z,857.76
2022-11-01T07:39:41.044Z,857.79
2022-11-01T07:40:41.031Z,857.75
2022-11-01T07:41:41.021Z,857.71
2022-11-01T07:42:41.025Z,857.71
2022-11-01T07:43:41.001Z,857.74
2022-11-01T07:44:41.075Z,857.80
2022-11-01T07:45:40.979Z,857.78
2022-11-01T07:46:41.009Z,857.73
2022-11-01T07:47:40.959Z,857.73
2022-11-01T07:48:40.946Z,857.73
2022-11-01T07:49:40.936Z,857.76
2022-11-01T07:50:40.986Z,857.74
2022-11-01T07:51:40.914Z,857.80
2022-11-01T07:52:40.915Z,857.84
2022-11-01T07:53:40.894Z,857.81
2022-11-01T07:54:40.891Z,857.86
2022-11-01T07:55:40.887Z,857.83
2022-11-01T07:56:40.934Z,857.86
2022-11-01T07:57:40.853Z,857.88
2022-11-01T07:58:40.839Z,857.91
2022-11-01T07:59:40.833Z,857.88
2022-11-01T08:00:40.830Z,857.88
2022-11-01T08:01:40.914Z,857.91
2022-11-01T08:02:40.896Z,857.89
2022-11-01T08:03:40.791Z,857.95
2022-11-01T08:04:40.776Z,857.94
2022-11-01T08:05:40.769Z,857.96
2022-11-01T08:06:40.759Z,857.98
2022-11-01T08:07:40.756Z,857.93
2022-11-01T08:08:40.773Z,858.01
2022-11-01T08:09:40.726Z,858.02
2022-11-01T08:10:40.717Z,858.00
2022-11-01T08:11:40.719Z,858.01
2022-11-01T08:12:40.694Z,857.98
2022-11-01T08:13:40.689Z,858.00
2022-11-01T08:14:40.793Z,858.02
2022-11-01T08:15:40.671Z,858.00
2022-11-01T08:16:40.741Z,858.00
2022-11-01T08:17:40.639Z,858.04
2022-11-01T08:19:50.974Z,858.07
2022-11-01T08:20:50.943Z,858.12
2022-11-01T08:21:50.943Z,858.14
2022-11-01T08:22:50.930Z,858.10
2022-11-01T08:23:50.909Z,858.15
2022-11-01T08:24:51.039Z,858.12
2022-11-01T08:25:55.715Z,858.19
2022-11-01T08:26:50.917Z,858.20
2022-11-01T08:27:50.869Z,858.19
2022-11-01T08:28:50.886Z,858.15
2022-11-01T08:29:50.899Z,858.11
2022-11-01T08:30:50.838Z,858.14
2022-11-01T08:31:50.824Z,858.19
2022-11-01T08:32:50.829Z,858.21
2022-11-01T08:33:50.800Z,858.23
2022-11-01T08:34:50.794Z,858.16
2022-11-01T08:35:51.055Z,858.22
2022-11-01T08:36:50.776Z,858.23
2022-11-01T08:37:51.295Z,858.23
2022-11-01T08:38:50.776Z,858.21
2022-11-01T08:39:50.741Z,858.20
2022-11-01T08:40:50.729Z,858.20
2022-11-01T08:41:50.781Z,858.18
2022-11-01T08:42:50.707Z,858.19
2022-11-01T08:43:50.694Z,858.18
2022-11-01T08:44:50.722Z,858.21
2022-11-01T08:45:50.672Z,858.26
2022-11-01T08:46:50.663Z,858.24
2022-11-01T08:47:50.652Z,858.27
2022-11-01T08:48:50.643Z,858.27
2022-11-01T08:49:50.679Z,858.28
2022-11-01T08:50:50.621Z,858.25
2022-11-01T08:51:50.625Z,858.24
2022-11-01T08:52:50.604Z,858.27
2022-11-01T08:53:50.587Z,858.26
2022-11-01T08:54:50.605Z,858.24
2022-11-01T08:55:50.592Z,858.20
2022-11-01T08:56:50.552Z,858.22
2022-11-01T08:57:50.540Z,858.21
2022-11-01T08:58:50.544Z,858.21
2022-11-01T08:59:50.538Z,858.22
2022-11-01T09:00:50.618Z,858.26
2022-11-01T09:01:50.564Z,858.26
2022-11-01T09:02:50.490Z,858.32
2022-11-01T09:03:50.473Z,858.37
2022-11-01T09:04:50.478Z,858.36
2022-11-01T09:05:50.453Z,858.37
2022-11-01T09:06:50.514Z,858.32
2022-11-01T09:07:50.445Z,858.35
2022-11-01T09:08:50.420Z,858.40
2022-11-01T09:09:50.421Z,858.42
2022-11-01T09:10:50.408Z,858.43
2022-11-01T09:11:50.384Z,858.41
2022-11-01T09:12:50.444Z,858.47
2022-11-01T09:13:50.360Z,858.42
2022-11-01T09:14:50.364Z,858.44
2022-11-01T09:15:50.337Z,858.46
2022-11-01T09:16:50.329Z,858.46
2022-11-01T09:17:50.316Z,858.46
2022-11-01T09:18:50.375Z,858.47
2022-11-01T09:19:50.306Z,858.49
2022-11-01T09:20:50.285Z,858.49
2022-11-01T09:21:50.283Z,858.51
2022-11-01T09:22:50.259Z,858.53
2022-11-01T09:23:50.266Z,858.56
2022-11-01T09:24:50.359Z,858.56
2022-11-01T09:25:50.224Z,858.54
2022-11-01T09:26:50.228Z,858.58
2022-11-01T09:27:50.199Z,858.58
2022-11-01T09:28:50.192Z,858.60
2022-11-01T09:29:52.021Z,858.59
2022-11-01T09:31:01.398Z,858.55
2022-11-01T09:31:51.167Z,858.58
2022-11-01T09:32:50.147Z,858.54
2022-11-01T09:33:50.841Z,858.57
2022-11-01T09:35:05.739Z,858.59
2022-11-01T09:35:52.193Z,858.60
2022-11-01T09:36:51.100Z,858.60
2022-11-01T09:37:50.097Z,858.63
2022-11-01T09:38:50.093Z,858.63
2022-11-01T09:39:50.083Z,858.63
2022-11-01T09:40:50.056Z,858.61
2022-11-01T09:41:50.108Z,858.62
2022-11-01T09:42:50.048Z,858.64
2022-11-01T09:43:50.021Z,858.66
2022-11-01T09:44:50.011Z,858.65
2022-11-01T09:45:50.000Z,858.64
2022-11-01T09:46:49.993Z,858.73
2022-11-01T09:47:50.034Z,858.69
2022-11-01T09:48:50.006Z,858.70
2022-11-01T09:49:49.957Z,858.66
2022-11-01T09:50:49.948Z,858.62
2022-11-01T09:51:49.933Z,858.64
2022-11-01T09:52:49.927Z,858.65
2022-11-01T09:53:50.021Z,858.64
2022-11-01T09:54:49.903Z,858.65
2022-11-01T09:55:49.909Z,858.67
2022-11-01T09:56:49.884Z,858.68
2022-11-01T09:57:49.870Z,858.66
2022-11-01T09:58:49.862Z,858.64
2022-11-01T09:59:49.911Z,858.62
2022-11-01T10:00:49.870Z,858.64
2022-11-01T10:01:50.048Z,858.66
2022-11-01T10:02:49.850Z,858.65
2022-11-01T10:03:49.805Z,858.68
2022-11-01T10:04:49.808Z,858.69
2022-11-01T10:05:49.848Z,858.68
2022-11-01T10:06:49.777Z,858.67
2022-11-01T10:07:49.768Z,858.68
2022-11-01T10:08:49.753Z,858.64
2022-11-01T10:09:49.740Z,858.63
2022-11-01T10:10:49.741Z,858.61
2022-11-01T10:11:49.813Z,858.64
2022-11-01T10:12:49.712Z,858.64
2022-11-01T10:13:49.696Z,858.63
2022-11-01T10:14:49.706Z,858.69
2022-11-01T10:15:49.676Z,858.64
2022-11-01T10:16:49.668Z,858.64
2022-11-01T10:18:02.381Z,858.68
2022-11-01T10:18:50.644Z,858.65
2022-11-01T10:19:49.635Z,858.64
2022-11-01T10:20:49.636Z,858.63
2022-11-01T10:21:49.628Z,858.62
2022-11-01T10:22:49.603Z,858.64
2022-11-01T10:23:49.639Z,858.61
2022-11-01T10:24:49.579Z,858.61
2022-11-01T10:25:49.565Z,858.63
2022-11-01T10:26:49.566Z,858.61
2022-11-01T10:27:49.581Z,858.63
2022-11-01T10:28:49.536Z,858.60
2022-11-01T10:29:49.579Z,858.61
2022-11-01T10:30:49.552Z,858.66
2022-11-01T10:31:49.510Z,858.66
2022-11-01T10:32:49.499Z,858.65
2022-11-01T10:33:49.477Z,858.65
2022-11-01T10:34:49.470Z,858.69
2022-11-01T10:35:49.459Z,858.69
2022-11-01T10:36:49.525Z,858.70
2022-11-01T10:38:03.983Z,858.68
2022-11-01T10:39:36.944Z,858.71
2022-11-01T10:39:55.768Z,858.73
2022-11-01T10:40:50.482Z,858.73
2022-11-01T10:41:49.388Z,858.68
2022-11-01T10:42:49.473Z,858.68
2022-11-01T10:43:49.401Z,858.71
2022-11-01T10:44:49.354Z,858.66
2022-11-01T10:45:49.342Z,858.68
2022-11-01T10:46:49.330Z,858.64
2022-11-01T10:47:49.321Z,858.70
2022-11-01T10:48:49.377Z,858.67
2022-11-01T10:50:06.508Z,858.62
2022-11-01T10:50:50.289Z,858.69
2022-11-01T10:51:49.294Z,858.66
2022-11-01T10:52:49.268Z,858.67
2022-11-01T10:53:49.251Z,858.60
2022-11-01T10:54:49.329Z,858.62
2022-11-01T10:55:49.231Z,858.63
2022-11-01T10:56:49.220Z,858.60
2022-11-01T10:57:49.222Z,858.60
2022-11-01T10:58:49.196Z,858.61
2022-11-01T10:59:49.206Z,858.55
2022-11-01T11:00:49.302Z,858.60
2022-11-01T11:01:49.248Z,858.60
2022-11-01T11:02:49.177Z,858.58
2022-11-01T11:03:49.141Z,858.59
2022-11-01T11:04:49.195Z,858.59
2022-11-01T11:05:49.142Z,858.60
2022-11-01T11:06:49.142Z,858.60
2022-11-01T11:07:49.108Z,858.56
2022-11-01T11:08:49.094Z,858.58
2022-11-01T11:09:49.142Z,858.59
2022-11-01T11:10:49.065Z,858.51
2022-11-01T11:11:49.055Z,858.47
2022-11-01T11:12:49.102Z,858.43
2022-11-01T11:13:49.048Z,858.45
2022-11-01T11:14:49.016Z,858.43
2022-11-01T11:15:49.030Z,858.43
2022-11-01T11:16:48.996Z,858.43
2022-11-01T11:17:48.987Z,858.46
2022-11-01T11:18:49.076Z,858.44
2022-11-01T11:19:48.974Z,858.47
2022-11-01T11:20:48.978Z,858.44
2022-11-01T11:21:48.952Z,858.47
2022-11-01T11:22:48.945Z,858.41
2022-11-01T11:23:48.922Z,858.45
2022-11-01T11:24:48.918Z,858.44
2022-11-01T11:25:48.960Z,858.41
2022-11-01T11:26:52.889Z,858.40
2022-11-01T11:27:49.875Z,858.45
2022-11-01T11:28:48.877Z,858.43
2022-11-01T11:29:48.985Z,858.43
2022-11-01T11:30:48.840Z,858.40
2022-11-01T11:31:48.884Z,858.44
2022-11-01T11:32:48.830Z,858.42
2022-11-01T11:33:48.823Z,858.38
2022-11-01T11:34:48.817Z,858.37
2022-11-01T11:35:48.787Z,858.39
2022-11-01T11:36:48.776Z,858.39
2022-11-01T11:37:48.836Z,858.45
2022-11-01T11:38:49.408Z,858.36
2022-11-01T11:39:48.754Z,858.36
2022-11-01T11:40:48.732Z,858.34
2022-11-01T11:41:48.722Z,858.32
2022-11-01T11:42:48.710Z,858.25
2022-11-01T11:43:48.731Z,858.28
2022-11-01T11:44:52.025Z,858.26
2022-11-01T11:45:49.688Z,858.24
2022-11-01T11:46:48.669Z,858.18
2022-11-01T11:47:48.675Z,858.23
2022-11-01T11:48:48.648Z,858.24
2022-11-01T11:49:48.683Z,858.25
2022-11-01T11:50:48.623Z,858.25
2022-11-01T11:51:48.624Z,858.25
2022-11-01T11:52:48.602Z,858.27
2022-11-01T11:53:48.606Z,858.28
2022-11-01T11:54:48.578Z,858.26
2022-11-01T11:55:48.587Z,858.24
2022-11-01T11:56:48.558Z,858.27
2022-11-01T11:57:48.548Z,858.22
2022-11-01T11:58:48.557Z,858.27
2022-11-01T11:59:48.528Z,858.23
2022-11-01T12:00:48.583Z,858.23
2022-11-01T12:01:48.620Z,858.22
2022-11-01T12:02:48.526Z,858.18
2022-11-01T12:03:48.501Z,858.17
2022-11-01T12:04:48.481Z,858.21
2022-11-01T12:05:48.460Z,858.20
2022-11-01T12:06:48.500Z,858.20
2022-11-01T12:07:48.438Z,858.21
2022-11-01T12:08:48.426Z,858.24
2022-11-01T12:09:48.420Z,858.18
2022-11-01T12:10:48.416Z,858.21
2022-11-01T12:11:48.395Z,858.22
2022-11-01T12:12:48.466Z,858.25
2022-11-01T12:13:48.374Z,858.24
2022-11-01T12:14:48.364Z,858.22
2022-11-01T12:15:48.354Z,858.21
2022-11-01T12:16:48.344Z,858.24
2022-11-01T12:17:48.342Z,858.21
2022-11-01T12:18:48.371Z,858.17
2022-11-01T12:19:48.341Z,858.16
2022-11-01T12:20:48.295Z,858.17
2022-11-01T12:21:48.285Z,858.19
2022-11-01T12:22:48.274Z,858.18
2022-11-01T12:23:48.276Z,858.14
2022-11-01T12:24:48.324Z,858.20
2022-11-01T12:25:48.242Z,858.15
2022-11-01T12:26:48.230Z,858.17
2022-11-01T12:27:48.221Z,858.14
2022-11-01T12:28:48.207Z,858.09
2022-11-01T12:29:48.208Z,858.12
2022-11-01T12:30:48.211Z,858.13
2022-11-01T12:31:48.176Z,858.13
2022-11-01T12:32:48.164Z,858.07